.
WxDataArchive / Data Records for 2010-01-05
2010-01-04 January 2010 2010-01-06

Data Records for Tuesday, 05 January 2010

Time	Temp	Chill	HIndex	Humid	Dewpt	 Wind 	HiWind	WindDir	Rain 	Barom 
-----	----	-----	------	-----	-----	------	------	-------	-----	----- 
00:00	21.1	21.1	21.1	86	17.6	1	4	248	0.00	30.113 
00:05	21.1	21.1	21.1	87	17.8	1	5	248	0.00	30.113 
00:10	21.1	21.1	21.1	87	17.8	0	2	248	0.00	30.113 
00:15	21.1	21.1	21.1	87	17.8	1	3	270	0.00	30.108 
00:20	21.3	21.3	21.3	87	18.0	1	2	248	0.00	30.108 
00:25	21.1	21.1	21.1	87	17.8	1	3	248	0.00	30.108 
00:30	21.3	21.3	21.3	88	18.3	1	3	248	0.00	30.106 
00:35	21.3	21.3	21.3	88	18.3	0	2	270	0.00	30.106 
00:40	21.3	21.3	21.3	88	18.3	1	3	270	0.00	30.106 
00:45	21.3	21.3	21.3	88	18.3	1	4	248	0.00	30.105 
00:50	21.4	21.4	21.4	88	18.4	0	3	270	0.00	30.105 
00:55	21.4	21.4	21.4	88	18.4	1	3	270	0.00	30.105 
01:00	21.4	21.4	21.4	88	18.4	1	5	270	0.00	30.103 
01:05	21.4	21.4	21.4	88	18.4	1	4	248	0.00	30.103 
01:10	21.4	21.4	21.4	89	18.7	1	3	248	0.00	30.103 
01:15	21.4	21.4	21.4	89	18.7	1	4	248	0.00	30.100 
01:20	21.4	21.4	21.4	89	18.7	1	5	225	0.00	30.100 
01:25	21.4	21.4	21.4	89	18.7	1	3	225	0.00	30.100 
01:30	21.4	21.4	21.4	89	18.7	1	4	248	0.00	30.098 
01:35	21.4	21.4	21.4	89	18.7	1	4	248	0.00	30.098 
01:40	21.4	21.4	21.4	89	18.7	1	3	248	0.00	30.098 
01:45	21.4	21.4	21.4	89	18.7	1	3	248	0.00	30.100 
01:50	21.4	21.4	21.4	89	18.7	1	3	248	0.00	30.100 
01:55	21.4	21.4	21.4	89	18.7	1	3	248	0.00	30.100 
02:00	21.4	21.4	21.4	89	18.7	1	4	248	0.00	30.097 
02:05	21.4	21.4	21.4	90	18.9	2	6	248	0.00	30.097 
02:10	21.4	21.4	21.4	90	18.9	1	3	225	0.00	30.097 
02:15	21.4	21.4	21.4	90	18.9	1	3	248	0.00	30.098 
02:20	21.4	21.4	21.4	90	18.9	1	3	248	0.00	30.098 
02:25	21.4	21.4	21.4	90	18.9	2	5	270	0.00	30.098 
02:30	21.4	21.4	21.4	90	18.9	1	3	270	0.00	30.105 
02:35	21.4	21.4	21.4	90	18.9	1	4	248	0.00	30.105 
02:40	21.4	21.4	21.4	90	18.9	1	4	248	0.00	30.105 
02:45	21.4	21.4	21.4	90	18.9	1	4	248	0.00	30.107 
02:50	21.4	21.4	21.4	90	18.9	1	4	248	0.00	30.107 
02:55	21.4	21.4	21.4	91	19.2	1	3	225	0.00	30.107 
03:00	21.4	21.4	21.4	91	19.2	1	2	248	0.00	30.111 
03:05	21.4	21.4	21.4	91	19.2	1	2	248	0.00	30.111 
03:10	21.4	21.4	21.4	91	19.2	1	3	248	0.00	30.111 
03:15	21.3	21.3	21.3	91	19.1	1	4	270	0.00	30.108 
03:20	21.3	21.3	21.3	91	19.1	0	2	270	0.00	30.108 
03:25	21.3	21.3	21.3	91	19.1	0	2	270	0.00	30.108 
03:30	21.3	21.3	21.3	91	19.1	1	2	270	0.00	30.108 
03:35	21.3	21.3	21.3	91	19.1	1	3	248	0.00	30.108 
03:40	21.1	21.1	21.1	91	18.9	1	4	270	0.00	30.108 
03:45	21.1	21.1	21.1	91	18.9	1	4	270	0.00	30.108 
03:50	21.1	21.1	21.1	91	18.9	1	3	248	0.00	30.108 
03:55	21.1	21.1	21.1	91	18.9	2	5	248	0.00	30.108 
04:00	21.1	21.1	21.1	91	18.9	1	3	270	0.00	30.108 
04:05	21.1	21.1	21.1	91	18.9	1	2	270	0.00	30.108 
04:10	21.1	21.1	21.1	91	18.9	1	3	248	0.00	30.108 
04:15	21.0	21.0	21.0	91	18.8	1	4	248	0.00	30.107 
04:20	21.0	21.0	21.0	91	18.8	1	4	248	0.00	30.107 
04:25	21.0	21.0	21.0	91	18.8	2	5	248	0.00	30.107 
04:30	21.0	21.0	21.0	91	18.8	1	4	248	0.00	30.105 
04:35	21.0	21.0	21.0	91	18.8	1	4	248	0.00	30.105 
04:40	20.8	20.8	20.8	91	18.6	1	4	248	0.00	30.105 
04:45	20.8	20.8	20.8	91	18.6	1	5	248	0.00	30.104 
04:50	20.8	20.8	20.8	91	18.6	1	3	248	0.00	30.104 
04:55	20.8	20.8	20.8	91	18.6	1	4	248	0.00	30.104 
05:00	20.8	20.8	20.8	90	18.3	1	3	248	0.00	30.105 
05:05	20.8	20.8	20.8	90	18.3	1	4	248	0.00	30.105 
05:10	20.8	20.8	20.8	90	18.3	1	4	248	0.00	30.105 
05:15	20.8	20.8	20.8	90	18.3	1	3	270	0.00	30.107 
05:20	20.6	20.6	20.6	90	18.1	1	4	270	0.00	30.107 
05:25	20.5	20.5	20.5	90	18.0	2	4	270	0.00	30.107 
05:30	20.3	20.3	20.3	90	17.8	2	4	270	0.00	30.110 
05:35	20.2	20.2	20.2	90	17.7	2	3	248	0.00	30.110 
05:40	20.0	20.0	20.0	90	17.5	2	4	248	0.00	30.110 
05:45	19.9	19.9	19.9	90	17.5	1	3	248	0.00	30.112 
05:50	19.9	19.9	19.9	90	17.5	1	3	248	0.00	30.112 
05:55	19.7	19.7	19.7	90	17.3	2	5	248	0.00	30.112 
06:00	19.7	19.7	19.7	90	17.3	1	3	270	0.00	30.115 
06:05	19.5	19.5	19.5	90	17.1	1	4	248	0.00	30.115 
06:10	19.5	19.5	19.5	90	17.1	1	4	248	0.00	30.115 
06:15	19.5	19.5	19.5	90	17.1	1	4	270	0.00	30.120 
06:20	19.5	19.5	19.5	90	17.1	1	4	225	0.00	30.120 
06:25	19.5	19.5	19.5	90	17.1	1	3	248	0.00	30.120 
06:30	19.4	19.4	19.4	89	16.7	1	4	248	0.00	30.121 
06:35	19.2	19.2	19.2	89	16.5	1	3	270	0.00	30.121 
06:40	19.2	19.2	19.2	89	16.5	1	4	248	0.00	30.121 
06:45	19.2	19.2	19.2	89	16.5	1	3	248	0.00	30.125 
06:50	19.2	19.2	19.2	89	16.5	1	5	248	0.00	30.125 
06:55	19.2	19.2	19.2	89	16.5	1	4	248	0.00	30.125 
07:00	19.2	19.2	19.2	89	16.5	1	3	248	0.00	30.125 
07:05	19.4	19.4	19.4	89	16.7	1	3	248	0.00	30.125 
07:10	19.4	19.4	19.4	89	16.7	2	6	248	0.00	30.125 
07:15	19.4	19.4	19.4	90	17.0	1	5	248	0.00	30.128 
07:20	19.5	19.5	19.5	90	17.1	1	5	248	0.00	30.128 
07:25	19.5	19.5	19.5	90	17.1	1	6	248	0.00	30.128 
07:30	19.7	19.7	19.7	90	17.3	1	3	248	0.00	30.130 
07:35	19.9	19.9	19.9	90	17.5	1	3	270	0.00	30.130 
07:40	19.9	19.9	19.9	90	17.5	1	3	248	0.00	30.130 
07:45	20.0	20.0	20.0	90	17.5	1	3	248	0.00	30.132 
07:50	20.2	20.2	20.2	90	17.7	1	3	248	0.00	30.132 
07:55	20.2	20.2	20.2	90	17.7	1	3	248	0.00	30.132 
08:00	20.2	20.2	20.2	91	18.0	1	4	248	0.00	30.131 
08:05	20.2	20.2	20.2	91	18.0	1	4	248	0.00	30.131 
08:10	20.2	20.2	20.2	91	18.0	1	3	248	0.00	30.131 
08:15	20.2	20.2	20.2	91	18.0	2	5	248	0.00	30.132 
08:20	20.2	20.2	20.2	91	18.0	2	4	248	0.00	30.132 
08:25	20.2	20.2	20.2	91	18.0	1	3	248	0.00	30.132 
08:30	20.2	20.2	20.2	91	18.0	2	5	248	0.00	30.129 
08:35	20.2	20.2	20.2	91	18.0	2	6	248	0.00	30.129 
08:40	20.2	20.2	20.2	91	18.0	1	3	248	0.00	30.129 
08:45	20.2	20.2	20.2	91	18.0	2	4	248	0.00	30.130 
08:50	20.2	20.2	20.2	91	18.0	2	4	248	0.00	30.130 
08:55	20.2	20.2	20.2	91	18.0	2	3	248	0.00	30.130 
09:00	20.2	20.2	20.2	91	18.0	2	4	248	0.00	30.135 
09:05	20.2	20.2	20.2	91	18.0	2	6	248	0.00	30.135 
09:10	20.2	20.2	20.2	91	18.0	2	5	270	0.00	30.135 
09:15	20.2	20.2	20.2	91	18.0	2	3	248	0.00	30.140 
09:20	20.2	20.2	20.2	91	18.0	1	3	248	0.00	30.140 
09:25	20.2	20.2	20.2	91	18.0	2	4	270	0.00	30.140 
09:30	20.3	20.3	20.3	91	18.1	2	3	270	0.00	30.141 
09:35	20.3	20.3	20.3	91	18.1	2	5	225	0.00	30.141 
09:40	20.5	20.5	20.5	91	18.3	1	3	270	0.00	30.141 
09:45	20.6	20.6	20.6	91	18.4	2	4	248	0.00	30.141 
09:50	20.5	20.5	20.5	91	18.3	2	5	270	0.00	30.141 
09:55	20.6	20.6	20.6	91	18.4	2	5	270	0.00	30.141 
10:00	20.8	20.8	20.8	91	18.6	2	4	248	0.00	30.142 
10:05	21.0	21.0	21.0	91	18.8	2	5	248	0.00	30.142 
10:10	21.1	21.1	21.1	91	18.9	2	5	248	0.00	30.142 
10:15	21.1	21.1	21.1	91	18.9	2	3	270	0.00	30.140 
10:20	21.3	21.3	21.3	91	19.1	2	5	270	0.00	30.140 
10:25	21.3	21.3	21.3	91	19.1	2	5	248	0.00	30.140 
10:30	21.4	21.4	21.4	91	19.2	2	6	270	0.00	30.140 
10:35	21.6	21.6	21.6	91	19.4	3	7	270	0.00	30.140 
10:40	21.8	21.8	21.8	91	19.6	2	4	270	0.00	30.140 
10:45	21.8	21.8	21.8	91	19.6	2	6	270	0.00	30.139 
10:50	21.9	21.9	21.9	91	19.7	2	6	248	0.00	30.139 
10:55	21.9	21.9	21.9	91	19.7	2	5	270	0.00	30.139 
11:00	22.1	22.1	22.1	91	19.9	2	5	248	0.00	30.139 
11:05	22.2	22.2	22.2	91	20.0	2	5	248	0.00	30.139 
11:10	22.4	22.4	22.4	91	20.2	2	5	270	0.00	30.139 
11:15	22.5	22.5	22.5	90	20.0	2	5	270	0.00	30.137 
11:20	22.7	22.7	22.7	90	20.2	2	5	270	0.00	30.137 
11:25	22.7	22.7	22.7	90	20.2	2	5	270	0.00	30.137 
11:30	23.0	23.0	23.0	90	20.5	2	5	270	0.00	30.134 
11:35	23.0	23.0	23.0	90	20.5	2	5	270	0.00	30.134 
11:40	23.2	23.2	23.2	90	20.7	2	4	270	0.00	30.134 
11:45	23.5	23.5	23.5	90	21.0	3	6	270	0.00	30.126 
11:50	23.6	23.6	23.6	90	21.1	2	5	270	0.00	30.126 
11:55	23.8	23.8	23.8	90	21.3	3	5	248	0.00	30.126 
12:00	24.1	24.1	24.1	90	21.6	2	5	248	0.00	30.121 
12:05	24.1	24.1	24.1	89	21.3	3	5	270	0.00	30.121 
12:10	24.2	24.2	24.2	89	21.4	2	4	292	0.00	30.121 
12:15	24.4	24.4	24.4	89	21.6	3	7	270	0.00	30.116 
12:20	24.4	24.4	24.4	88	21.4	3	11	270	0.00	30.116 
12:25	24.4	24.4	24.4	88	21.4	2	5	270	0.00	30.116 
12:30	24.7	24.7	24.7	88	21.7	2	4	270	0.00	30.112 
12:35	24.7	24.7	24.7	88	21.7	2	4	270	0.00	30.112 
12:40	24.7	24.7	24.7	88	21.7	3	5	270	0.00	30.112 
12:45	24.7	24.7	24.7	88	21.7	2	5	270	0.00	30.105 
12:50	24.8	24.8	24.8	88	21.8	2	4	270	0.00	30.105 
12:55	24.8	24.8	24.8	87	21.5	2	5	270	0.00	30.105 
13:00	24.8	24.8	24.8	87	21.5	2	4	270	0.00	30.103 
13:05	25.0	25.0	25.0	87	21.7	2	4	248	0.00	30.103 
13:10	25.0	25.0	25.0	87	21.7	3	6	270	0.00	30.103 
13:15	25.0	25.0	25.0	87	21.7	2	6	270	0.00	30.102 
13:20	24.8	24.8	24.8	86	21.2	2	4	292	0.00	30.102 
13:25	25.0	25.0	25.0	86	21.4	2	4	292	0.00	30.102 
13:30	25.1	25.1	25.1	86	21.5	2	5	248	0.00	30.102 
13:35	25.0	25.0	25.0	86	21.4	2	4	270	0.00	30.102 
13:40	24.8	24.8	24.8	86	21.2	3	5	270	0.00	30.102 
13:45	24.7	24.7	24.7	86	21.1	3	5	270	0.00	30.098 
13:50	24.8	24.8	24.8	86	21.2	3	5	270	0.00	30.098 
13:55	24.7	24.7	24.7	86	21.1	3	9	292	0.00	30.098 
14:00	24.7	24.7	24.7	86	21.1	3	7	270	0.00	30.101 
14:05	24.7	24.7	24.7	86	21.1	3	5	270	0.00	30.101 
14:10	24.7	24.7	24.7	86	21.1	3	8	270	0.00	30.101 
14:15	24.7	24.7	24.7	86	21.1	3	5	270	0.00	30.098 
14:20	24.8	24.8	24.8	86	21.2	3	6	270	0.00	30.098 
14:25	24.8	24.8	24.8	86	21.2	3	5	270	0.00	30.098 
14:30	24.8	24.8	24.8	86	21.2	3	6	270	0.00	30.102 
14:35	25.0	25.0	25.0	86	21.4	2	4	270	0.00	30.102 
14:40	25.0	25.0	25.0	86	21.4	3	6	248	0.00	30.102 
14:45	24.8	24.8	24.8	85	20.9	2	5	270	0.00	30.104 
14:50	25.0	25.0	25.0	85	21.1	3	6	270	0.00	30.104 
14:55	24.7	24.7	24.7	85	20.8	3	9	270	0.00	30.104 
15:00	24.5	19.4	24.5	85	20.6	4	8	270	0.00	30.104 
15:05	24.2	24.2	24.2	85	20.4	3	6	270	0.00	30.104 
15:10	24.2	24.2	24.2	85	20.4	3	6	270	0.00	30.104 
15:15	24.1	24.1	24.1	85	20.3	3	6	270	0.00	30.109 
15:20	23.9	23.9	23.9	85	20.1	3	5	270	0.00	30.109 
15:25	23.9	23.9	23.9	86	20.3	2	6	270	0.00	30.109 
15:30	23.6	18.4	23.6	85	19.8	4	11	270	0.00	30.118 
15:35	23.5	23.5	23.5	86	19.9	3	6	270	0.00	30.118 
15:40	23.2	23.2	23.2	86	19.6	3	7	270	0.00	30.118 
15:45	23.0	23.0	23.0	86	19.4	3	10	270	0.00	30.121 
15:50	22.9	22.9	22.9	86	19.4	3	10	270	0.00	30.121 
15:55	23.0	23.0	23.0	87	19.7	2	6	292	0.00	30.121 
16:00	22.9	22.9	22.9	87	19.6	3	9	270	0.00	30.121 
16:05	22.7	22.7	22.7	87	19.4	3	6	270	0.00	30.121 
16:10	22.5	22.5	22.5	87	19.2	3	6	270	0.00	30.121 
16:15	22.4	22.4	22.4	87	19.1	3	6	248	0.00	30.123 
16:20	22.4	22.4	22.4	87	19.1	2	6	292	0.00	30.123 
16:25	21.9	21.9	21.9	87	18.6	3	6	248	0.00	30.123 
16:30	21.3	21.3	21.3	86	17.8	3	9	248	0.00	30.128 
16:35	20.8	20.8	20.8	86	17.3	3	6	248	0.00	30.128 
16:40	20.5	20.5	20.5	86	17.0	3	6	292	0.00	30.128 
16:45	20.3	20.3	20.3	87	17.1	2	9	270	0.00	30.130 
16:50	20.3	20.3	20.3	87	17.1	2	5	248	0.00	30.130 
16:55	20.2	20.2	20.2	87	17.0	3	5	270	0.00	30.130 
17:00	20.2	20.2	20.2	88	17.2	3	9	270	0.00	30.128 
17:05	20.0	20.0	20.0	88	17.0	2	7	248	0.00	30.128 
17:10	20.0	20.0	20.0	88	17.0	2	6	248	0.00	30.128 
17:15	20.0	20.0	20.0	88	17.0	2	5	248	0.00	30.139 
17:20	19.9	19.9	19.9	88	16.9	2	5	248	0.00	30.139 
17:25	19.9	19.9	19.9	88	16.9	2	5	248	0.00	30.139 
17:30	20.0	20.0	20.0	88	17.0	3	7	248	0.00	30.140 
17:35	20.0	20.0	20.0	89	17.3	2	10	248	0.00	30.140 
17:40	20.0	20.0	20.0	89	17.3	2	9	248	0.00	30.140 
17:45	20.0	20.0	20.0	89	17.3	2	5	248	0.00	30.141 
17:50	20.0	20.0	20.0	89	17.3	2	6	248	0.00	30.141 
17:55	20.2	20.2	20.2	89	17.5	2	6	248	0.00	30.141 
18:00	20.2	20.2	20.2	90	17.7	2	5	248	0.00	30.141 
18:05	20.3	20.3	20.3	90	17.8	3	7	225	0.00	30.141 
18:10	20.5	20.5	20.5	90	18.0	2	6	248	0.00	30.141 
18:15	20.5	20.5	20.5	90	18.0	2	9	248	0.00	30.140 
18:20	20.6	20.6	20.6	90	18.1	2	6	270	0.00	30.140 
18:25	20.6	20.6	20.6	90	18.1	2	4	248	0.00	30.140 
18:30	20.6	20.6	20.6	90	18.1	2	5	248	0.00	30.141 
18:35	20.6	20.6	20.6	90	18.1	2	6	248	0.00	30.141 
18:40	20.6	20.6	20.6	90	18.1	3	7	248	0.00	30.141 
18:45	20.6	20.6	20.6	90	18.1	3	7	248	0.00	30.142 
18:50	20.6	20.6	20.6	90	18.1	3	6	248	0.00	30.142 
18:55	20.6	20.6	20.6	90	18.1	3	10	248	0.00	30.142 
19:00	20.5	20.5	20.5	90	18.0	2	6	248	0.00	30.145 
19:05	20.5	20.5	20.5	90	18.0	2	5	248	0.00	30.145 
19:10	20.5	20.5	20.5	90	18.0	2	8	248	0.00	30.145 
19:15	20.5	20.5	20.5	90	18.0	2	5	248	0.00	30.154 
19:20	20.5	20.5	20.5	90	18.0	1	3	248	0.00	30.154 
19:25	20.5	20.5	20.5	90	18.0	1	4	248	0.00	30.154 
19:30	20.5	20.5	20.5	90	18.0	2	7	248	0.00	30.155 
19:35	20.5	20.5	20.5	90	18.0	2	4	248	0.00	30.155 
19:40	20.5	20.5	20.5	90	18.0	1	3	248	0.00	30.155 
19:45	20.6	20.6	20.6	90	18.1	2	7	248	0.00	30.155 
19:50	20.6	20.6	20.6	90	18.1	2	4	248	0.00	30.155 
19:55	20.8	20.8	20.8	90	18.3	2	4	270	0.00	30.155 
20:00	20.8	20.8	20.8	90	18.3	2	5	292	0.00	30.158 
20:05	20.8	20.8	20.8	90	18.3	2	5	248	0.00	30.158 
20:10	20.8	20.8	20.8	90	18.3	2	6	248	0.00	30.158 
20:15	20.8	20.8	20.8	90	18.3	2	10	270	0.00	30.158 
20:20	20.8	20.8	20.8	90	18.3	2	5	248	0.00	30.158 
20:25	20.6	20.6	20.6	90	18.1	2	6	270	0.00	30.158 
20:30	20.5	20.5	20.5	90	18.0	3	7	270	0.00	30.157 
20:35	20.5	20.5	20.5	90	18.0	2	4	248	0.00	30.157 
20:40	20.5	20.5	20.5	90	18.0	2	3	292	0.00	30.157 
20:45	20.5	20.5	20.5	90	18.0	1	5	270	0.00	30.158 
20:50	20.6	20.6	20.6	90	18.1	2	7	270	0.00	30.158 
20:55	20.6	20.6	20.6	90	18.1	2	5	270	0.00	30.158 
21:00	20.8	20.8	20.8	90	18.3	2	4	270	0.00	30.156 
21:05	20.8	20.8	20.8	90	18.3	2	4	270	0.00	30.156 
21:10	20.8	20.8	20.8	90	18.3	2	3	225	0.00	30.156 
21:15	21.0	21.0	21.0	90	18.5	2	6	248	0.00	30.151 
21:20	21.0	21.0	21.0	90	18.5	2	6	248	0.00	30.151 
21:25	21.1	21.1	21.1	91	18.9	2	4	248	0.00	30.151 
21:30	21.3	21.3	21.3	91	19.1	2	3	248	0.00	30.147 
21:35	21.4	21.4	21.4	91	19.2	1	3	270	0.00	30.147 
21:40	21.4	21.4	21.4	91	19.2	1	7	248	0.00	30.147 
21:45	21.6	21.6	21.6	91	19.4	2	5	248	0.00	30.146 
21:50	21.6	21.6	21.6	91	19.4	2	5	225	0.00	30.146 
21:55	21.6	21.6	21.6	91	19.4	2	5	270	0.00	30.146 
22:00	21.8	21.8	21.8	90	19.3	2	4	225	0.00	30.144 
22:05	21.8	21.8	21.8	90	19.3	1	4	248	0.00	30.144 
22:10	21.9	21.9	21.9	90	19.4	2	4	270	0.00	30.144 
22:15	21.9	21.9	21.9	90	19.4	1	3	248	0.00	30.140 
22:20	22.1	22.1	22.1	90	19.6	2	3	248	0.00	30.140 
22:25	22.2	22.2	22.2	90	19.7	2	6	270	0.00	30.140 
22:30	22.2	22.2	22.2	89	19.5	2	5	270	0.00	30.141 
22:35	22.2	22.2	22.2	89	19.5	2	5	248	0.00	30.141 
22:40	22.1	22.1	22.1	89	19.4	2	5	248	0.00	30.141 
22:45	21.9	21.9	21.9	88	18.9	1	4	248	0.00	30.141 
22:50	21.8	21.8	21.8	88	18.8	2	4	270	0.00	30.141 
22:55	21.6	21.6	21.6	88	18.6	2	4	248	0.00	30.141 
23:00	21.4	21.4	21.4	88	18.4	2	6	248	0.00	30.143 
23:05	21.4	21.4	21.4	87	18.1	2	7	270	0.00	30.143 
23:10	21.3	21.3	21.3	87	18.0	2	4	248	0.00	30.143 
23:15	21.1	21.1	21.1	87	17.8	1	3	292	0.00	30.149 
23:20	21.0	21.0	21.0	87	17.8	2	6	270	0.00	30.149 
23:25	21.0	21.0	21.0	86	17.5	1	4	248	0.00	30.149 
23:30	21.0	21.0	21.0	86	17.5	2	3	270	0.00	30.150 
23:35	20.8	20.8	20.8	86	17.3	2	5	225	0.00	30.150 
23:40	20.8	20.8	20.8	86	17.3	2	5	270	0.00	30.150 
23:45	20.8	20.8	20.8	86	17.3	2	4	270	0.00	30.143 
23:50	20.6	20.6	20.6	85	16.8	2	5	270	0.00	30.143 
23:55	20.6	20.6	20.6	85	16.8	2	5	270	0.00	30.143 

CoCoRaHS
IN-AL-39
A2 Web Hosting
Creative Commons License
GoDaddy
search engine by freefind advanced

loaded 2018-11-22 05:27:25 • last modified 2010-11-18 10:43:29
Privacy PolicyDisclaimer
• wx.awcolley.com is powered by PmWiki v.2002016 •
• all content (unless otherwise noted) © 2018 A W Colley